Time;durP1;ratioP1;P1;durP2;ratioP2;P2;SDS_P1;SDS_P2;PMS_P1;PMS_P2;Temp;Humidity;BMP_temperature;BMP_pressure;BME280_temperature;BME280_humidity;BME280_pressure;Samples;Min_cycle;Max_cycle;Signal;HPM_P1;HPM_P2
2021/01/03 00:00:40;;;;;;;9.70;8.53;;;7.10;69.30;;;;;;5051863;28;21195;-52
2021/01/03 00:03:07;;;;;;;12.33;9.83;;;7.10;69.30;;;;;;5069657;28;21236;-51
2021/01/03 00:05:34;;;;;;;9.80;8.07;;;7.10;69.30;;;;;;5058351;28;20663;-50
2021/01/03 00:08:01;;;;;;;10.07;8.40;;;7.10;69.50;;;;;;5064369;28;20675;-51
2021/01/03 00:10:28;;;;;;;8.90;8.00;;;7.10;69.40;;;;;;5069470;28;20743;-51
2021/01/03 00:12:55;;;;;;;10.70;9.00;;;7.10;69.30;;;;;;5069275;28;20684;-51
2021/01/03 00:15:22;;;;;;;9.80;8.33;;;7.10;69.30;;;;;;5068700;28;20636;-51
2021/01/03 00:17:50;;;;;;;8.83;7.70;;;7.10;69.30;;;;;;5068805;28;20649;-50
2021/01/03 00:20:18;;;;;;;8.33;7.53;;;7.10;69.30;;;;;;5069530;28;20731;-51
2021/01/03 00:22:45;;;;;;;10.63;8.80;;;7.20;69.60;;;;;;5069109;28;20705;-53
2021/01/03 00:25:13;;;;;;;10.93;8.57;;;7.20;69.50;;;;;;5068647;28;21045;-52
2021/01/03 00:27:40;;;;;;;10.17;8.17;;;7.20;69.30;;;;;;5068717;28;20661;-52
2021/01/03 00:30:08;;;;;;;8.83;8.03;;;7.20;69.00;;;;;;5068247;28;20709;-52
2021/01/03 00:32:35;;;;;;;9.90;7.90;;;7.10;68.80;;;;;;5068997;28;20658;-52
2021/01/03 00:35:04;;;;;;;10.63;8.90;;;7.10;69.00;;;;;;5068922;28;20630;-51
2021/01/03 00:37:31;;;;;;;8.50;7.70;;;7.10;69.00;;;;;;5069368;28;20777;-51
2021/01/03 00:39:57;;;;;;;9.23;8.00;;;7.10;68.80;;;;;;5069195;28;20649;-53
2021/01/03 00:42:24;;;;;;;9.30;8.03;;;7.20;68.90;;;;;;5069260;28;20689;-52
2021/01/03 00:44:51;;;;;;;11.40;8.00;;;7.10;68.90;;;;;;5068150;28;21199;-52
2021/01/03 00:47:18;;;;;;;9.30;8.37;;;7.10;68.80;;;;;;5068951;28;20661;-52
2021/01/03 00:49:45;;;;;;;9.87;7.63;;;7.10;68.80;;;;;;5069110;28;20693;-53
2021/01/03 00:52:12;;;;;;;10.03;9.03;;;7.10;68.70;;;;;;5068799;28;20650;-52
2021/01/03 00:54:39;;;;;;;8.70;7.80;;;7.10;68.90;;;;;;5071417;28;20981;-51
2021/01/03 00:57:06;;;;;;;9.73;8.63;;;7.10;68.90;;;;;;5072068;28;21008;-52
2021/01/03 00:59:32;;;;;;;8.60;7.70;;;7.10;68.70;;;;;;5072774;28;20622;-54
2021/01/03 01:01:59;;;;;;;10.00;9.00;;;7.10;68.60;;;;;;5072574;28;20776;-52
2021/01/03 01:04:26;;;;;;;9.67;8.30;;;7.00;68.40;;;;;;5072512;28;20617;-53
2021/01/03 01:06:52;;;;;;;8.13;6.77;;;7.10;68.70;;;;;;5071904;28;20691;-52
2021/01/03 01:09:20;;;;;;;8.97;7.60;;;7.00;68.70;;;;;;5072756;28;20704;-52
2021/01/03 01:11:47;;;;;;;8.23;7.47;;;7.00;68.60;;;;;;5072783;28;20675;-53
2021/01/03 01:14:14;;;;;;;10.73;8.80;;;7.00;68.60;;;;;;5072976;28;20769;-53
2021/01/03 01:16:40;;;;;;;11.17;9.57;;;7.00;68.70;;;;;;5072300;28;20709;-53
2021/01/03 01:19:07;;;;;;;9.20;8.27;;;7.00;68.90;;;;;;5052059;28;20667;-52
2021/01/03 01:21:34;;;;;;;13.90;11.47;;;7.00;68.70;;;;;;5070336;28;20684;-51
2021/01/03 01:24:00;;;;;;;9.93;8.60;;;7.00;68.90;;;;;;5072221;28;20678;-52
2021/01/03 01:26:28;;;;;;;8.77;7.90;;;7.00;69.00;;;;;;5072958;28;21174;-50
2021/01/03 01:28:55;;;;;;;10.03;7.43;;;7.00;69.20;;;;;;5071840;28;20740;-52
2021/01/03 01:31:22;;;;;;;9.73;8.13;;;7.00;69.30;;;;;;5072737;28;20649;-52
2021/01/03 01:33:49;;;;;;;10.90;8.60;;;7.00;69.20;;;;;;5072007;28;20704;-51
2021/01/03 01:36:15;;;;;;;8.87;7.90;;;7.00;69.00;;;;;;5072110;28;20624;-50
2021/01/03 01:38:42;;;;;;;8.50;7.70;;;7.00;69.00;;;;;;5071856;28;20629;-49
2021/01/03 01:41:09;;;;;;;12.50;8.87;;;7.00;68.90;;;;;;5071942;28;20618;-52
2021/01/03 01:43:37;;;;;;;8.30;7.47;;;7.00;69.00;;;;;;5071747;28;20690;-51
2021/01/03 01:46:04;;;;;;;12.23;9.50;;;7.00;69.00;;;;;;5071868;28;20671;-52
2021/01/03 01:48:32;;;;;;;9.53;7.30;;;7.00;69.20;;;;;;5071130;28;20656;-51
2021/01/03 01:51:03;;;;;;;9.20;8.20;;;7.00;69.10;;;;;;5071606;28;20738;-51
2021/01/03 01:53:32;;;;;;;10.00;8.13;;;7.00;69.30;;;;;;5071644;28;20686;-51
2021/01/03 01:56:01;;;;;;;9.07;7.83;;;6.90;69.40;;;;;;5071712;28;20752;-51
2021/01/03 01:58:33;;;;;;;10.10;9.00;;;7.00;69.40;;;;;;5071643;28;20658;-50
2021/01/03 02:01:03;;;;;;;9.43;8.43;;;6.90;69.20;;;;;;5071387;28;20624;-51
2021/01/03 02:03:33;;;;;;;8.83;7.03;;;7.00;69.30;;;;;;5071674;28;20682;-51
2021/01/03 02:06:03;;;;;;;9.93;8.67;;;7.00;69.10;;;;;;5061480;28;20664;-50
2021/01/03 02:08:31;;;;;;;7.90;7.03;;;7.00;69.20;;;;;;5071573;28;20626;-52
2021/01/03 02:10:59;;;;;;;9.27;7.70;;;7.00;69.00;;;;;;5071246;28;20728;-50
2021/01/03 02:13:27;;;;;;;8.60;7.03;;;7.00;68.90;;;;;;5071259;28;20810;-50
2021/01/03 02:15:55;;;;;;;8.53;7.27;;;7.00;68.70;;;;;;5071689;28;20625;-51
2021/01/03 02:18:22;;;;;;;10.43;8.37;;;7.00;68.60;;;;;;5070892;28;20641;-51
2021/01/03 02:20:57;;;;;;;8.47;7.70;;;7.00;69.50;;;;;;5071307;28;20625;-51
2021/01/03 02:23:30;;;;;;;8.47;7.50;;;7.00;68.80;;;;;;5070590;28;20692;-51
2021/01/03 02:25:58;;;;;;;8.70;7.73;;;7.00;69.30;;;;;;5071404;28;20653;-50
2021/01/03 02:28:24;;;;;;;11.00;8.60;;;7.00;69.50;;;;;;5070556;28;20666;-50
2021/01/03 02:30:53;;;;;;;8.60;7.60;;;7.00;69.60;;;;;;5071147;28;20715;-51
2021/01/03 02:33:23;;;;;;;8.70;7.80;;;7.00;69.60;;;;;;5071147;28;20765;-51
2021/01/03 02:35:51;;;;;;;9.83;8.47;;;6.90;69.50;;;;;;5056861;28;20729;-51
2021/01/03 02:38:20;;;;;;;8.93;7.90;;;7.00;69.40;;;;;;5067794;28;20772;-51
2021/01/03 02:40:46;;;;;;;8.80;7.73;;;6.90;69.40;;;;;;5070637;28;20654;-51
2021/01/03 02:43:14;;;;;;;12.63;8.50;;;7.00;69.40;;;;;;5070659;28;20661;-51
2021/01/03 02:45:41;;;;;;;10.00;7.77;;;7.00;69.30;;;;;;5070097;28;20992;-51
2021/01/03 02:48:09;;;;;;;7.70;7.00;;;6.90;69.30;;;;;;5064662;28;20658;-51
2021/01/03 02:50:36;;;;;;;8.53;7.57;;;6.90;69.20;;;;;;5050039;28;20690;-50
2021/01/03 02:53:02;;;;;;;9.13;8.27;;;6.90;69.20;;;;;;5049996;28;20687;-51
2021/01/03 02:55:29;;;;;;;7.83;7.23;;;6.90;69.50;;;;;;5062629;28;20657;-51
2021/01/03 02:57:56;;;;;;;13.60;9.47;;;6.90;69.80;;;;;;5069608;28;20677;-51
2021/01/03 03:00:25;;;;;;;8.03;7.23;;;6.90;70.00;;;;;;5070131;28;20641;-51
2021/01/03 03:02:52;;;;;;;9.10;8.27;;;6.90;69.90;;;;;;5071891;28;20657;-51
2021/01/03 03:05:19;;;;;;;9.60;8.53;;;6.90;69.90;;;;;;5089953;28;20653;-51
2021/01/03 03:07:46;;;;;;;9.87;8.83;;;7.00;69.80;;;;;;5083227;28;20984;-51
2021/01/03 03:10:13;;;;;;;11.40;9.80;;;7.00;69.80;;;;;;5050605;28;20710;-51
2021/01/03 03:12:40;;;;;;;10.37;9.37;;;7.00;69.60;;;;;;5050015;28;20695;-51
2021/01/03 03:15:08;;;;;;;11.10;9.30;;;7.00;69.40;;;;;;5049684;28;20652;-51
2021/01/03 03:17:36;;;;;;;8.70;7.90;;;7.00;69.30;;;;;;5049728;28;20632;-51
2021/01/03 03:20:03;;;;;;;8.80;7.77;;;7.00;69.30;;;;;;5053824;28;21045;-50
2021/01/03 03:22:29;;;;;;;11.47;9.63;;;7.00;69.40;;;;;;5069614;28;20658;-51
2021/01/03 03:24:56;;;;;;;12.83;9.30;;;6.90;69.70;;;;;;5067599;28;20622;-51
2021/01/03 03:27:23;;;;;;;10.60;9.50;;;7.00;69.70;;;;;;5049927;28;20623;-51
2021/01/03 03:29:49;;;;;;;9.97;8.97;;;7.00;69.50;;;;;;5056804;28;20646;-51
2021/01/03 03:32:16;;;;;;;10.30;9.20;;;7.00;69.30;;;;;;5070905;28;20642;-50
2021/01/03 03:34:44;;;;;;;9.60;8.70;;;7.00;69.00;;;;;;5068648;28;20759;-52
2021/01/03 03:37:10;;;;;;;11.00;9.90;;;7.00;69.00;;;;;;5068386;28;21159;-52
2021/01/03 03:39:37;;;;;;;10.43;9.47;;;7.00;69.00;;;;;;5069032;28;20627;-53
2021/01/03 03:42:04;;;;;;;11.20;8.70;;;7.00;69.10;;;;;;5068561;28;20658;-52
2021/01/03 03:44:31;;;;;;;9.30;8.50;;;7.00;69.20;;;;;;5069427;28;20651;-52
2021/01/03 03:47:00;;;;;;;11.07;10.07;;;7.00;69.30;;;;;;5069038;28;20651;-52
2021/01/03 03:49:27;;;;;;;12.13;10.83;;;7.00;68.60;;;;;;5068621;28;20690;-52
2021/01/03 03:51:55;;;;;;;10.07;9.13;;;7.10;68.80;;;;;;5068959;28;20653;-52
2021/01/03 03:54:22;;;;;;;11.17;10.03;;;7.10;68.30;;;;;;5069226;28;20650;-52
2021/01/03 03:56:50;;;;;;;12.73;10.90;;;7.10;68.20;;;;;;5069045;28;20675;-52
2021/01/03 03:59:17;;;;;;;9.00;8.20;;;7.10;68.20;;;;;;5069704;28;20630;-52
2021/01/03 04:01:44;;;;;;;11.97;10.03;;;7.10;68.10;;;;;;5051786;28;20713;-52
2021/01/03 04:04:11;;;;;;;10.87;9.50;;;7.10;68.20;;;;;;5048388;28;21031;-52
2021/01/03 04:06:38;;;;;;;10.53;9.43;;;7.10;68.20;;;;;;5052132;28;20660;-52
2021/01/03 04:09:05;;;;;;;10.60;9.60;;;7.10;68.20;;;;;;5048475;28;20626;-52
2021/01/03 04:11:32;;;;;;;11.57;10.30;;;7.10;68.20;;;;;;5048606;28;20707;-52
2021/01/03 04:13:59;;;;;;;10.20;9.20;;;7.10;68.20;;;;;;5058443;28;20682;-52
2021/01/03 04:16:26;;;;;;;11.17;10.07;;;7.10;68.30;;;;;;5068943;28;20678;-52
2021/01/03 04:18:52;;;;;;;13.33;10.63;;;7.10;68.50;;;;;;5068366;28;20655;-52
2021/01/03 04:21:19;;;;;;;12.50;10.83;;;7.10;68.70;;;;;;5069055;28;20806;-52
2021/01/03 04:23:46;;;;;;;9.77;8.87;;;7.10;68.50;;;;;;5068239;28;20659;-52
2021/01/03 04:26:17;;;;;;;11.80;10.57;;;7.10;68.20;;;;;;5068806;28;20663;-52
2021/01/03 04:28:44;;;;;;;11.00;9.90;;;7.10;68.00;;;;;;5070596;28;20685;-52
2021/01/03 04:31:11;;;;;;;11.83;10.53;;;7.10;67.90;;;;;;5072577;28;21286;-52
2021/01/03 04:33:40;;;;;;;11.80;10.70;;;7.10;68.00;;;;;;5072821;28;20689;-52
2021/01/03 04:36:08;;;;;;;11.53;10.33;;;7.10;68.10;;;;;;5072484;28;20666;-52
2021/01/03 04:38:35;;;;;;;13.23;11.60;;;7.20;68.00;;;;;;5072362;28;20624;-52
2021/01/03 04:41:02;;;;;;;10.03;8.93;;;7.20;67.70;;;;;;5072837;28;20618;-52
2021/01/03 04:43:30;;;;;;;11.80;9.97;;;7.20;67.60;;;;;;5072667;28;20683;-51
2021/01/03 04:46:01;;;;;;;11.97;10.80;;;7.20;68.30;;;;;;5072916;28;21036;-52
2021/01/03 04:48:29;;;;;;;11.37;10.23;;;7.20;67.50;;;;;;5072996;28;20652;-52
2021/01/03 04:51:02;;;;;;;11.67;10.47;;;7.20;67.60;;;;;;5071606;28;20656;-52
2021/01/03 04:53:43;;;;;;;12.63;11.33;;;7.10;67.70;;;;;;5071963;28;20678;-52
2021/01/03 04:56:19;;;;;;;11.43;10.13;;;7.10;67.80;;;;;;5078867;28;20998;-52
2021/01/03 04:58:54;;;;;;;12.57;10.40;;;7.10;67.90;;;;;;5092365;28;20657;-52
2021/01/03 05:01:50;;;;;;;14.10;11.73;;;7.10;68.10;;;;;;5092427;28;20656;-52
2021/01/03 05:04:46;;;;;;;13.93;12.43;;;7.10;68.60;;;;;;5085389;28;20798;-52
2021/01/03 05:07:15;;;;;;;11.87;10.73;;;7.10;68.80;;;;;;5086840;28;20634;-52
2021/01/03 05:09:42;;;;;;;12.73;11.53;;;7.20;69.30;;;;;;5091668;28;20618;-52
2021/01/03 05:12:15;;;;;;;13.40;11.83;;;7.10;69.20;;;;;;5080453;28;20659;-52
2021/01/03 05:14:44;;;;;;;13.10;11.70;;;7.20;69.80;;;;;;5071570;28;20632;-52
2021/01/03 05:17:11;;;;;;;11.97;10.03;;;7.20;70.00;;;;;;5071610;28;20653;-52
2021/01/03 05:19:37;;;;;;;12.33;10.77;;;7.20;69.80;;;;;;5071709;28;21260;-52
2021/01/03 05:22:04;;;;;;;14.00;11.70;;;7.20;69.80;;;;;;5071977;28;20687;-51
2021/01/03 05:24:41;;;;;;;14.20;11.97;;;7.20;69.90;;;;;;5081358;28;20700;-52
2021/01/03 05:27:12;;;;;;;12.00;10.90;;;7.20;69.80;;;;;;5092419;28;21010;-52
2021/01/03 05:29:38;;;;;;;13.47;11.53;;;7.20;69.90;;;;;;5092124;28;21215;-52
2021/01/03 05:32:06;;;;;;;11.80;10.57;;;7.30;70.10;;;;;;5090856;28;20658;-51
2021/01/03 05:34:35;;;;;;;14.73;13.20;;;7.30;70.00;;;;;;5072248;28;20691;-52
2021/01/03 05:37:03;;;;;;;13.13;10.90;;;7.30;70.20;;;;;;5071687;28;20635;-52
2021/01/03 05:39:31;;;;;;;13.03;11.40;;;7.30;70.50;;;;;;5072340;28;21031;-52
2021/01/03 05:42:04;;;;;;;11.87;10.53;;;7.30;69.90;;;;;;5071955;28;20650;-51
2021/01/03 05:44:32;;;;;;;13.87;12.57;;;7.30;70.00;;;;;;5071861;28;20707;-52
2021/01/03 05:47:12;;;;;;;12.77;11.13;;;7.20;69.90;;;;;;5071367;28;20654;-52
2021/01/03 05:49:39;;;;;;;12.50;11.20;;;7.20;70.10;;;;;;5048793;28;20735;-52
2021/01/03 05:52:10;;;;;;;12.90;11.60;;;7.10;70.20;;;;;;5076532;28;20689;-52
2021/01/03 05:54:38;;;;;;;12.23;11.00;;;7.20;70.20;;;;;;5091727;28;20979;-53
2021/01/03 05:57:06;;;;;;;14.43;11.43;;;7.20;70.10;;;;;;5091599;28;20629;-52
2021/01/03 05:59:35;;;;;;;14.40;12.90;;;7.20;70.00;;;;;;5092079;28;20634;-52
2021/01/03 06:02:08;;;;;;;15.17;12.47;;;7.10;70.10;;;;;;5071390;28;20706;-52
2021/01/03 06:04:34;;;;;;;11.37;10.27;;;7.20;70.40;;;;;;5071353;28;20635;-52
2021/01/03 06:07:06;;;;;;;12.20;11.00;;;7.20;70.40;;;;;;5067350;28;20678;-52
2021/01/03 06:09:37;;;;;;;11.50;10.40;;;7.20;70.40;;;;;;5051524;28;20686;-52
2021/01/03 06:12:07;;;;;;;12.50;11.30;;;7.20;70.50;;;;;;5051423;28;20650;-52
2021/01/03 06:14:35;;;;;;;11.27;10.27;;;7.20;70.70;;;;;;5051238;28;20651;-51
2021/01/03 06:17:07;;;;;;;14.00;11.77;;;7.20;70.80;;;;;;5051055;28;20651;-52
2021/01/03 06:19:35;;;;;;;12.43;11.13;;;7.20;70.70;;;;;;5050779;28;20685;-52
2021/01/03 06:22:04;;;;;;;10.97;9.80;;;7.20;70.90;;;;;;5089390;28;20678;-52
2021/01/03 06:24:31;;;;;;;12.63;10.77;;;7.20;70.90;;;;;;5090844;28;20992;-52
2021/01/03 06:27:00;;;;;;;11.23;10.30;;;7.20;70.80;;;;;;5091225;28;21058;-52
2021/01/03 06:29:32;;;;;;;10.50;9.43;;;7.20;71.10;;;;;;5075073;28;20660;-52
2021/01/03 06:32:09;;;;;;;12.23;10.70;;;7.10;71.10;;;;;;5070470;28;20702;-51
2021/01/03 06:34:40;;;;;;;12.40;11.30;;;7.10;71.50;;;;;;5071752;28;20670;-51
2021/01/03 06:37:09;;;;;;;12.20;11.10;;;7.10;71.70;;;;;;5070811;28;21032;-50
2021/01/03 06:39:41;;;;;;;13.57;12.27;;;7.10;72.70;;;;;;5070865;28;20659;-51
2021/01/03 06:42:27;;;;;;;12.10;10.90;;;7.10;72.40;;;;;;5070864;28;20717;-50
2021/01/03 06:45:14;;;;;;;14.13;12.73;;;7.10;72.60;;;;;;5070416;28;20705;-50
2021/01/03 06:48:23;;;;;;;12.20;11.00;;;7.10;72.50;;;;;;5070709;28;20628;-51
2021/01/03 06:51:10;;;;;;;11.10;9.73;;;7.10;72.50;;;;;;5050428;28;21057;-50
2021/01/03 06:54:17;;;;;;;12.10;10.97;;;7.10;72.60;;;;;;5065988;28;20659;-50
2021/01/03 06:57:09;;;;;;;13.00;10.37;;;7.10;73.10;;;;;;5080734;28;20673;-51
2021/01/03 07:00:13;;;;;;;13.37;11.10;;;7.10;72.60;;;;;;5088821;28;20991;-50
2021/01/03 07:02:41;;;;;;;11.87;10.23;;;7.20;72.80;;;;;;5018725;28;20693;-50
2021/01/03 07:05:10;;;;;;;11.73;10.40;;;7.10;72.80;;;;;;5059196;28;20679;-52
2021/01/03 07:07:37;;;;;;;15.03;11.73;;;7.10;73.00;;;;;;5071530;28;21022;-53
2021/01/03 07:10:06;;;;;;;15.47;13.47;;;7.10;73.10;;;;;;5069702;28;20657;-52
2021/01/03 07:12:35;;;;;;;11.37;10.27;;;7.10;73.10;;;;;;5069706;28;20718;-52
2021/01/03 07:15:02;;;;;;;12.50;11.30;;;7.20;73.50;;;;;;5069794;28;20677;-52
2021/01/03 07:17:52;;;;;;;13.80;12.40;;;7.10;73.60;;;;;;5075866;28;20658;-52
2021/01/03 07:20:23;;;;;;;13.67;12.03;;;7.10;74.20;;;;;;5090178;28;20613;-52
2021/01/03 07:23:02;;;;;;;11.87;10.70;;;7.20;74.50;;;;;;5089959;28;20721;-51
2021/01/03 07:25:30;;;;;;;14.03;11.27;;;7.20;75.40;;;;;;5076978;28;21219;-52
2021/01/03 07:28:15;;;;;;;13.83;12.27;;;7.20;74.90;;;;;;5069654;28;20623;-52
2021/01/03 07:31:01;;;;;;;11.57;10.37;;;7.20;75.10;;;;;;5070808;28;20685;-52
2021/01/03 07:33:34;;;;;;;14.63;13.03;;;7.20;75.30;;;;;;5069634;28;20693;-52
2021/01/03 07:36:16;;;;;;;13.03;11.70;;;7.20;75.50;;;;;;5069780;28;20642;-52
2021/01/03 07:38:43;;;;;;;11.93;10.67;;;7.10;75.90;;;;;;5069946;28;20645;-52
2021/01/03 07:41:10;;;;;;;14.23;12.57;;;7.20;76.10;;;;;;5067656;28;20658;-52
2021/01/03 07:44:07;;;;;;;13.67;11.80;;;7.20;76.20;;;;;;5072990;28;20775;-52
2021/01/03 07:46:55;;;;;;;12.77;11.33;;;7.20;76.40;;;;;;5026874;28;20848;-52
2021/01/03 07:49:44;;;;;;;13.23;11.87;;;7.20;76.50;;;;;;5083875;28;21074;-52
2021/01/03 07:52:40;;;;;;;14.00;12.57;;;7.20;76.80;;;;;;5089696;28;20701;-52
2021/01/03 07:55:26;;;;;;;13.17;11.83;;;7.20;77.10;;;;;;5080373;28;21247;-52
2021/01/03 07:57:54;;;;;;;11.70;10.10;;;7.20;77.20;;;;;;5068682;28;20657;-52
2021/01/03 08:00:22;;;;;;;12.67;11.33;;;7.20;77.40;;;;;;5070010;28;20708;-52
2021/01/03 08:02:50;;;;;;;15.70;12.20;;;7.20;77.90;;;;;;5068699;28;20659;-52
2021/01/03 08:05:20;;;;;;;13.73;11.07;;;7.10;78.00;;;;;;5068995;28;21026;-52
2021/01/03 08:07:47;;;;;;;13.60;11.40;;;7.10;78.10;;;;;;5066592;28;20654;-51
2021/01/03 08:10:15;;;;;;;12.50;11.23;;;7.20;78.70;;;;;;5067873;28;20665;-50
2021/01/03 08:12:43;;;;;;;13.00;10.87;;;7.10;79.00;;;;;;5069324;28;20693;-50
2021/01/03 08:15:12;;;;;;;12.17;10.90;;;7.20;79.30;;;;;;5069099;28;20627;-49
2021/01/03 08:17:41;;;;;;;12.07;10.67;;;7.20;79.40;;;;;;5069341;28;20666;-50
2021/01/03 08:20:10;;;;;;;13.33;11.70;;;7.20;79.60;;;;;;5069285;28;20669;-50
2021/01/03 08:22:36;;;;;;;13.10;11.33;;;7.20;79.80;;;;;;5070034;28;20739;-50
2021/01/03 08:25:05;;;;;;;14.63;12.50;;;7.20;79.90;;;;;;5068341;28;20693;-50
2021/01/03 08:27:41;;;;;;;13.90;12.43;;;7.20;80.30;;;;;;5068985;28;20627;-49
2021/01/03 08:30:11;;;;;;;13.63;11.70;;;7.20;80.30;;;;;;5069251;28;20628;-50
2021/01/03 08:32:39;;;;;;;11.50;10.07;;;7.20;80.80;;;;;;5068956;28;21301;-50
2021/01/03 08:35:13;;;;;;;13.77;10.47;;;7.20;81.20;;;;;;5050320;28;20622;-51
2021/01/03 08:37:41;;;;;;;14.40;10.80;;;7.20;81.40;;;;;;5069312;28;20733;-50
2021/01/03 08:40:15;;;;;;;13.77;10.97;;;7.20;81.60;;;;;;5087499;28;20685;-50
2021/01/03 08:42:43;;;;;;;13.03;11.63;;;7.30;81.70;;;;;;5089087;28;20716;-50
2021/01/03 08:45:16;;;;;;;11.70;10.50;;;7.30;81.90;;;;;;5088708;28;20618;-50
2021/01/03 08:47:43;;;;;;;10.70;9.70;;;7.30;81.90;;;;;;5087195;28;20723;-50
2021/01/03 08:50:11;;;;;;;13.47;12.03;;;7.30;82.00;;;;;;5069751;28;20640;-50
2021/01/03 08:52:38;;;;;;;13.10;11.30;;;7.30;82.00;;;;;;5050825;28;20747;-51
2021/01/03 08:55:09;;;;;;;13.17;11.87;;;7.30;82.20;;;;;;5072845;28;20626;-50
2021/01/03 08:57:38;;;;;;;13.20;10.83;;;7.30;82.40;;;;;;5088996;28;20626;-50
2021/01/03 09:00:06;;;;;;;12.30;10.97;;;7.30;82.70;;;;;;5075368;28;20638;-50
2021/01/03 09:02:33;;;;;;;11.70;10.53;;;7.40;82.80;;;;;;5068439;28;21223;-51
2021/01/03 09:05:01;;;;;;;11.20;10.10;;;7.40;83.10;;;;;;5068894;28;20653;-50
2021/01/03 09:07:30;;;;;;;11.97;10.77;;;7.40;82.70;;;;;;5068368;28;20631;-50
2021/01/03 09:09:59;;;;;;;11.70;10.57;;;7.40;82.80;;;;;;5079890;28;20631;-50
2021/01/03 09:12:34;;;;;;;13.57;11.80;;;7.40;82.70;;;;;;5075849;28;20734;-50
2021/01/03 09:15:01;;;;;;;12.83;11.57;;;7.50;82.80;;;;;;5069794;28;20630;-50
2021/01/03 09:17:30;;;;;;;13.73;11.70;;;7.50;82.60;;;;;;5072321;28;20669;-50
2021/01/03 09:20:02;;;;;;;13.20;11.13;;;7.50;83.00;;;;;;5072299;28;20628;-51
2021/01/03 09:22:30;;;;;;;13.33;11.37;;;7.50;83.10;;;;;;5072327;28;20663;-52
2021/01/03 09:24:58;;;;;;;12.37;10.40;;;7.50;83.20;;;;;;5073288;28;21128;-51
2021/01/03 09:27:27;;;;;;;11.80;10.60;;;7.50;83.10;;;;;;5071979;28;20639;-51
2021/01/03 09:30:06;;;;;;;11.70;10.60;;;7.50;83.10;;;;;;5071458;28;20632;-51
2021/01/03 09:32:32;;;;;;;13.43;12.00;;;7.50;83.10;;;;;;5071731;28;20786;-51
2021/01/03 09:35:07;;;;;;;15.33;11.40;;;7.50;83.30;;;;;;5089943;28;20687;-52
2021/01/03 09:37:35;;;;;;;13.70;12.30;;;7.50;83.50;;;;;;5092411;28;20629;-51
2021/01/03 09:40:12;;;;;;;11.67;10.50;;;7.50;83.60;;;;;;5091883;28;20971;-51
2021/01/03 09:42:41;;;;;;;14.80;11.47;;;7.60;83.00;;;;;;5089830;28;20806;-51
2021/01/03 09:45:47;;;;;;;11.87;10.67;;;7.60;83.40;;;;;;5091652;28;20696;-49
2021/01/03 09:48:28;;;;;;;16.73;13.37;;;7.60;83.00;;;;;;5088882;28;20971;-51
2021/01/03 09:51:03;;;;;;;14.53;12.83;;;7.70;83.30;;;;;;5091654;28;20717;-50
2021/01/03 09:53:30;;;;;;;12.33;11.20;;;7.70;83.90;;;;;;5091122;28;20703;-50
2021/01/03 09:55:59;;;;;;;10.97;9.50;;;7.70;83.70;;;;;;5073296;28;20662;-50
2021/01/03 09:58:34;;;;;;;11.33;10.07;;;7.70;83.70;;;;;;5070778;28;20639;-50
2021/01/03 10:01:02;;;;;;;12.57;11.27;;;7.70;83.40;;;;;;5071823;28;20752;-50
2021/01/03 10:03:35;;;;;;;11.57;10.40;;;7.70;83.10;;;;;;5070325;28;21268;-50
2021/01/03 10:06:12;;;;;;;12.67;11.37;;;7.70;83.50;;;;;;5071353;28;20701;-50
2021/01/03 10:08:38;;;;;;;11.80;10.17;;;7.70;83.40;;;;;;5068282;28;21028;-50
2021/01/03 10:11:05;;;;;;;12.90;11.60;;;7.80;83.40;;;;;;5069961;28;20752;-50
2021/01/03 10:13:32;;;;;;;11.77;10.57;;;7.80;83.80;;;;;;5070162;28;20737;-50
2021/01/03 10:15:59;;;;;;;13.67;11.40;;;7.80;83.60;;;;;;5070629;28;20696;-50
2021/01/03 10:18:31;;;;;;;11.50;10.30;;;7.80;84.40;;;;;;5068572;28;21206;-50
2021/01/03 10:20:58;;;;;;;11.10;9.90;;;7.80;83.60;;;;;;5070281;28;20620;-50
2021/01/03 10:23:36;;;;;;;13.93;11.73;;;7.80;83.50;;;;;;5069410;28;20746;-50
2021/01/03 10:26:03;;;;;;;11.40;10.13;;;7.80;83.80;;;;;;5067193;28;20688;-49
2021/01/03 10:28:30;;;;;;;14.23;12.73;;;7.80;84.10;;;;;;5069791;28;20685;-49
2021/01/03 10:30:57;;;;;;;13.90;11.43;;;7.80;83.90;;;;;;5069858;28;20625;-50
2021/01/03 10:33:24;;;;;;;13.07;11.10;;;7.80;84.00;;;;;;5069755;28;20644;-49
2021/01/03 10:35:52;;;;;;;13.03;11.57;;;7.80;84.10;;;;;;5070634;28;21198;-51
2021/01/03 10:38:19;;;;;;;12.63;11.33;;;7.80;84.10;;;;;;5069945;28;20665;-51
2021/01/03 10:40:45;;;;;;;11.30;10.20;;;7.80;84.20;;;;;;5071417;28;20639;-52
2021/01/03 10:43:12;;;;;;;11.77;10.67;;;7.80;84.10;;;;;;5070853;28;21191;-50
2021/01/03 10:45:39;;;;;;;14.43;12.60;;;7.90;83.90;;;;;;5068241;28;20834;-50
2021/01/03 10:48:07;;;;;;;12.87;10.10;;;7.80;83.90;;;;;;5059387;28;20623;-50
2021/01/03 10:50:33;;;;;;;12.30;10.67;;;7.80;83.80;;;;;;5081059;28;20622;-50
2021/01/03 10:53:01;;;;;;;11.03;9.37;;;7.80;83.70;;;;;;5069553;28;20977;-50
2021/01/03 10:55:28;;;;;;;11.37;10.17;;;7.80;84.00;;;;;;5070061;28;20703;-49
2021/01/03 10:57:57;;;;;;;13.20;10.93;;;7.80;83.90;;;;;;5070512;28;20677;-50
2021/01/03 11:00:24;;;;;;;10.93;9.80;;;7.80;84.10;;;;;;5070328;28;20624;-50
2021/01/03 11:02:50;;;;;;;13.23;11.83;;;7.80;84.20;;;;;;5069300;28;20708;-50
2021/01/03 11:05:17;;;;;;;14.00;11.67;;;7.80;83.80;;;;;;5064708;28;21753;-50
2021/01/03 11:07:44;;;;;;;13.37;11.83;;;7.90;83.80;;;;;;5069597;28;21105;-50
2021/01/03 11:10:13;;;;;;;13.53;11.03;;;7.90;83.90;;;;;;5051506;28;20672;-50
2021/01/03 11:12:39;;;;;;;11.60;10.50;;;7.80;83.90;;;;;;5069353;28;20653;-50
2021/01/03 11:15:08;;;;;;;12.30;11.07;;;7.90;84.10;;;;;;5069741;28;20685;-50
2021/01/03 11:17:34;;;;;;;11.70;10.50;;;7.90;83.90;;;;;;5069683;28;20666;-50
2021/01/03 11:20:01;;;;;;;12.50;10.70;;;7.90;84.00;;;;;;5069972;28;21006;-50
2021/01/03 11:22:28;;;;;;;15.47;11.27;;;8.00;84.20;;;;;;5094359;22;20704;-54
2021/01/03 11:24:55;;;;;;;12.57;11.03;;;7.90;83.70;;;;;;5091209;28;20668;-54
2021/01/03 11:27:23;;;;;;;10.53;9.40;;;8.00;83.60;;;;;;5086079;28;21166;-55
2021/01/03 11:29:50;;;;;;;12.53;9.90;;;7.90;83.50;;;;;;5073529;28;20745;-55
2021/01/03 11:32:17;;;;;;;11.93;9.90;;;7.90;83.40;;;;;;5081996;28;20652;-55
2021/01/03 11:34:44;;;;;;;10.40;9.33;;;7.90;83.50;;;;;;5071306;28;20647;-55
2021/01/03 11:37:12;;;;;;;14.00;10.17;;;7.90;83.80;;;;;;5091134;28;21036;-55
2021/01/03 11:39:38;;;;;;;14.93;10.73;;;8.00;83.90;;;;;;5091736;28;21235;-55
2021/01/03 11:42:08;;;;;;;11.83;10.40;;;8.00;83.70;;;;;;5091706;28;20627;-55
2021/01/03 11:44:36;;;;;;;13.37;10.93;;;8.00;83.80;;;;;;5091619;28;20623;-54
2021/01/03 11:47:04;;;;;;;9.70;8.60;;;8.00;83.70;;;;;;5086097;28;20679;-55
2021/01/03 11:49:32;;;;;;;9.47;8.47;;;8.00;83.70;;;;;;5069990;28;21192;-53
2021/01/03 11:51:59;;;;;;;12.47;9.53;;;8.00;83.80;;;;;;5071289;28;20652;-54
2021/01/03 11:54:26;;;;;;;10.50;9.03;;;8.00;83.70;;;;;;5079246;28;20712;-53
2021/01/03 11:56:56;;;;;;;11.77;9.70;;;8.00;83.70;;;;;;5090906;28;20673;-52
2021/01/03 11:59:23;;;;;;;13.10;9.93;;;8.00;83.60;;;;;;5091361;28;20647;-53
2021/01/03 12:01:55;;;;;;;10.40;9.40;;;8.10;83.90;;;;;;5090369;28;21194;-53
2021/01/03 12:04:22;;;;;;;12.13;10.93;;;8.10;84.20;;;;;;5091119;28;20711;-53
2021/01/03 12:06:53;;;;;;;9.93;8.93;;;8.10;84.40;;;;;;5091070;28;20616;-52
2021/01/03 12:09:20;;;;;;;11.33;9.53;;;8.10;84.80;;;;;;5091573;28;20627;-53
2021/01/03 12:11:51;;;;;;;11.03;9.80;;;8.10;84.40;;;;;;5091490;28;21046;-54
2021/01/03 12:14:17;;;;;;;10.07;9.03;;;8.10;85.00;;;;;;5090461;28;20662;-56
2021/01/03 12:16:44;;;;;;;11.57;9.77;;;8.10;84.60;;;;;;5091143;28;21186;-56
2021/01/03 12:19:12;;;;;;;12.00;10.67;;;8.10;84.40;;;;;;5091753;28;20623;-57
2021/01/03 12:21:39;;;;;;;11.50;10.30;;;8.10;84.70;;;;;;5082980;28;21210;-55
2021/01/03 12:24:06;;;;;;;11.47;9.20;;;8.20;85.00;;;;;;5071650;28;20656;-56
2021/01/03 12:26:36;;;;;;;9.80;8.27;;;8.10;85.30;;;;;;5080814;28;21019;-55
2021/01/03 12:29:03;;;;;;;12.27;9.40;;;8.10;85.00;;;;;;5075806;28;20650;-56
2021/01/03 12:31:33;;;;;;;12.10;9.90;;;8.10;85.10;;;;;;5092163;28;20659;-56
2021/01/03 12:34:02;;;;;;;9.23;8.20;;;8.10;85.30;;;;;;5092306;28;20662;-56
2021/01/03 12:36:30;;;;;;;11.30;9.50;;;8.10;85.60;;;;;;5090653;28;21035;-54
2021/01/03 12:38:57;;;;;;;9.57;8.57;;;8.10;86.00;;;;;;5091137;28;20635;-56
2021/01/03 12:41:24;;;;;;;9.40;8.00;;;8.10;86.30;;;;;;5091522;28;20667;-54
2021/01/03 12:43:51;;;;;;;9.10;8.20;;;8.20;86.00;;;;;;5073618;28;20746;-56
2021/01/03 12:46:28;;;;;;;9.13;8.20;;;8.20;85.90;;;;;;5091894;28;20981;-55
2021/01/03 12:48:55;;;;;;;8.50;7.70;;;8.20;85.70;;;;;;5091812;28;20629;-55
2021/01/03 12:51:22;;;;;;;7.93;7.00;;;8.30;85.70;;;;;;5096198;28;21170;-55
2021/01/03 12:53:50;;;;;;;8.10;7.27;;;8.20;85.50;;;;;;5095066;28;20655;-53
2021/01/03 12:56:17;;;;;;;7.77;7.00;;;8.20;85.20;;;;;;5095219;28;20631;-54